Time;durP1;ratioP1;P1;durP2;ratioP2;P2;SDS_P1;SDS_P2;PMS_P1;PMS_P2;Temp;Humidity;BMP_temperature;BMP_pressure;BME280_temperature;BME280_humidity;BME280_pressure;Samples;Min_cycle;Max_cycle;Signal;HPM_P1;HPM_P2
2024/03/27 00:00:29;;;;;;;9.65;5.18;;;12.60;92.50;;;;;;5063020;28;20491;-74
2024/03/27 00:02:55;;;;;;;6.93;4.35;;;12.70;92.50;;;;;;5060456;28;20029;-74
2024/03/27 00:05:21;;;;;;;8.35;4.70;;;12.60;92.40;;;;;;5065067;28;20032;-74
2024/03/27 00:07:46;;;;;;;13.88;5.55;;;12.60;92.50;;;;;;5066417;28;20062;-74
2024/03/27 00:10:13;;;;;;;9.15;4.72;;;12.60;92.50;;;;;;5062700;28;20487;-74
2024/03/27 00:12:39;;;;;;;10.60;4.75;;;12.60;92.60;;;;;;5046827;28;20530;-74
2024/03/27 00:15:05;;;;;;;7.72;4.72;;;12.60;92.50;;;;;;5051371;28;20044;-74
2024/03/27 00:17:31;;;;;;;8.90;5.18;;;12.60;92.50;;;;;;5070739;28;20064;-74
2024/03/27 00:19:57;;;;;;;10.60;5.20;;;12.60;92.60;;;;;;5061873;28;20039;-74
2024/03/27 00:22:23;;;;;;;8.45;5.30;;;12.50;92.60;;;;;;5072020;28;20029;-74
2024/03/27 00:24:49;;;;;;;16.92;5.05;;;12.60;92.60;;;;;;5061203;28;20028;-74
2024/03/27 00:27:14;;;;;;;10.32;5.55;;;12.50;92.60;;;;;;5068909;28;20032;-74
2024/03/27 00:29:40;;;;;;;17.35;7.05;;;12.50;92.60;;;;;;5075852;28;20116;-74
2024/03/27 00:32:06;;;;;;;12.48;6.40;;;12.50;92.70;;;;;;5053608;28;20049;-74
2024/03/27 00:34:34;;;;;;;12.25;6.47;;;12.50;92.70;;;;;;5062028;28;20033;-74
2024/03/27 00:37:01;;;;;;;9.55;5.32;;;12.50;92.60;;;;;;5059420;28;20033;-75
2024/03/27 00:39:27;;;;;;;8.18;5.13;;;12.50;92.80;;;;;;5073526;28;20043;-74
2024/03/27 00:41:53;;;;;;;17.00;5.97;;;12.50;92.70;;;;;;5072864;28;20037;-74
2024/03/27 00:44:18;;;;;;;10.23;5.32;;;12.50;92.70;;;;;;5071312;28;20081;-74
2024/03/27 00:46:44;;;;;;;8.10;4.93;;;12.50;92.70;;;;;;5065433;28;20029;-74
2024/03/27 00:49:10;;;;;;;10.35;4.90;;;12.50;92.70;;;;;;5066292;28;20028;-74
2024/03/27 00:51:35;;;;;;;9.00;5.03;;;12.50;92.60;;;;;;5054578;28;22018;-74
2024/03/27 00:54:01;;;;;;;9.35;5.20;;;12.40;92.50;;;;;;5069910;28;20125;-74
2024/03/27 00:56:27;;;;;;;10.00;4.78;;;12.40;92.50;;;;;;5073705;28;20776;-74
2024/03/27 00:58:53;;;;;;;8.45;4.75;;;12.40;92.50;;;;;;5072529;28;20062;-74
2024/03/27 01:01:19;;;;;;;8.07;5.00;;;12.50;92.60;;;;;;5063363;28;20123;-74
2024/03/27 01:03:44;;;;;;;10.45;5.28;;;12.40;92.60;;;;;;5055430;28;20033;-74
2024/03/27 01:06:10;;;;;;;7.60;4.22;;;12.40;92.70;;;;;;5065833;28;20032;-74
2024/03/27 01:08:36;;;;;;;9.50;4.40;;;12.40;92.60;;;;;;5060803;28;20051;-74
2024/03/27 01:11:01;;;;;;;8.38;4.43;;;12.40;92.70;;;;;;5062962;28;20045;-74
2024/03/27 01:13:27;;;;;;;8.35;4.55;;;12.40;92.70;;;;;;5070785;28;20078;-74
2024/03/27 01:15:53;;;;;;;8.82;4.18;;;12.40;92.70;;;;;;5073112;28;20043;-74
2024/03/27 01:18:19;;;;;;;10.60;4.88;;;12.30;92.70;;;;;;5054131;28;20094;-74
2024/03/27 01:20:45;;;;;;;7.05;4.68;;;12.30;92.70;;;;;;5054603;28;20722;-74
2024/03/27 01:23:11;;;;;;;8.68;4.65;;;12.40;92.80;;;;;;5066297;28;20120;-74
2024/03/27 01:25:37;;;;;;;10.20;4.20;;;12.40;92.70;;;;;;5057758;28;20035;-74
2024/03/27 01:28:04;;;;;;;10.20;4.47;;;12.30;92.70;;;;;;5057474;28;20388;-74
2024/03/27 01:30:30;;;;;;;8.23;3.97;;;12.30;92.70;;;;;;5063264;28;20439;-74
2024/03/27 01:32:57;;;;;;;10.48;4.68;;;12.30;92.80;;;;;;5057327;28;20123;-74
2024/03/27 01:35:23;;;;;;;11.48;4.25;;;12.20;92.80;;;;;;5060030;28;20510;-74
2024/03/27 01:37:49;;;;;;;8.05;4.35;;;12.20;92.70;;;;;;5062392;28;20094;-74
2024/03/27 01:40:15;;;;;;;8.52;4.18;;;12.20;92.70;;;;;;5060866;28;20029;-74
2024/03/27 01:42:40;;;;;;;9.77;4.63;;;12.20;92.70;;;;;;5056210;28;20033;-74
2024/03/27 01:45:11;;;;;;;9.48;4.35;;;12.30;92.70;;;;;;5051507;28;20036;-74
2024/03/27 01:47:37;;;;;;;7.63;4.32;;;12.20;92.60;;;;;;5063244;28;20036;-74
2024/03/27 01:50:04;;;;;;;10.68;4.55;;;12.20;92.60;;;;;;5049380;28;20534;-74
2024/03/27 01:52:30;;;;;;;9.27;4.90;;;12.20;92.60;;;;;;5057442;28;20068;-74
2024/03/27 01:54:56;;;;;;;9.38;4.72;;;12.20;92.70;;;;;;5056803;28;20564;-74
2024/03/27 01:57:22;;;;;;;9.18;4.30;;;12.20;92.60;;;;;;5049436;28;20112;-73
2024/03/27 01:59:48;;;;;;;8.10;4.40;;;12.20;92.50;;;;;;5059522;28;20047;-74
2024/03/27 02:02:14;;;;;;;8.57;4.88;;;12.20;92.70;;;;;;5063392;28;20025;-74
2024/03/27 02:04:39;;;;;;;12.05;4.72;;;12.20;92.60;;;;;;5061868;28;20082;-74
2024/03/27 02:07:06;;;;;;;7.47;4.18;;;12.20;93.00;;;;;;5068345;28;20380;-74
2024/03/27 02:09:32;;;;;;;8.13;4.65;;;12.10;92.70;;;;;;5055470;28;20048;-74
2024/03/27 02:11:58;;;;;;;6.85;4.00;;;12.10;92.60;;;;;;5058249;28;20475;-74
2024/03/27 02:14:23;;;;;;;7.00;4.70;;;12.10;92.70;;;;;;5059261;28;20024;-74
2024/03/27 02:16:49;;;;;;;7.60;4.03;;;12.10;92.70;;;;;;5053501;28;20029;-74
2024/03/27 02:19:15;;;;;;;7.88;4.18;;;12.10;92.60;;;;;;5052530;28;20192;-74
2024/03/27 02:21:40;;;;;;;10.07;4.55;;;12.10;92.60;;;;;;5048036;28;20437;-74
2024/03/27 02:24:12;;;;;;;7.72;4.00;;;12.10;92.70;;;;;;5056907;28;20059;-74
2024/03/27 02:26:38;;;;;;;6.72;4.40;;;12.10;92.70;;;;;;5062506;28;20032;-74
2024/03/27 02:29:04;;;;;;;6.15;3.75;;;12.10;92.70;;;;;;5054196;28;20032;-74
2024/03/27 02:31:29;;;;;;;7.47;3.83;;;12.10;92.80;;;;;;5065214;28;20040;-74
2024/03/27 02:33:55;;;;;;;7.40;3.83;;;12.10;92.90;;;;;;5055584;28;20021;-74
2024/03/27 02:36:21;;;;;;;6.30;4.00;;;12.10;92.80;;;;;;5053540;28;20126;-74
2024/03/27 02:38:47;;;;;;;6.65;3.80;;;12.00;92.70;;;;;;5058117;28;20502;-74
2024/03/27 02:41:12;;;;;;;7.80;4.20;;;12.10;92.70;;;;;;5053408;28;20071;-74
2024/03/27 02:43:38;;;;;;;9.30;4.32;;;12.10;92.80;;;;;;5053726;28;20033;-74
2024/03/27 02:46:04;;;;;;;11.45;4.82;;;12.10;92.70;;;;;;5047966;28;20040;-73
2024/03/27 02:48:30;;;;;;;6.18;3.80;;;12.00;92.80;;;;;;5055491;28;20044;-74
2024/03/27 02:50:55;;;;;;;6.40;4.07;;;12.10;92.70;;;;;;5050860;28;20037;-74
2024/03/27 02:53:21;;;;;;;7.82;4.28;;;12.00;92.60;;;;;;5068165;28;20111;-74
2024/03/27 02:55:50;;;;;;;7.20;3.90;;;12.10;92.70;;;;;;5053874;28;20114;-74
2024/03/27 02:58:16;;;;;;;8.43;4.18;;;12.10;92.60;;;;;;5050146;28;20049;-74
2024/03/27 03:00:42;;;;;;;7.25;4.32;;;12.10;92.60;;;;;;5062534;28;20119;-74
2024/03/27 03:03:08;;;;;;;8.40;4.03;;;12.10;92.50;;;;;;5048806;28;20102;-75
2024/03/27 03:05:34;;;;;;;9.13;3.78;;;12.10;92.70;;;;;;5050165;28;20489;-74
2024/03/27 03:07:59;;;;;;;8.20;4.13;;;12.10;92.60;;;;;;5064430;28;20120;-75
2024/03/27 03:10:26;;;;;;;7.40;3.90;;;12.10;92.60;;;;;;5063255;28;20101;-74
2024/03/27 03:12:52;;;;;;;16.55;4.10;;;12.00;92.50;;;;;;5064366;28;20091;-74
2024/03/27 03:15:18;;;;;;;8.85;4.05;;;12.10;92.50;;;;;;5051964;28;20480;-74
2024/03/27 03:17:45;;;;;;;10.82;4.10;;;12.00;92.60;;;;;;5057919;28;20032;-74
2024/03/27 03:20:12;;;;;;;7.65;3.53;;;12.00;92.50;;;;;;5049740;28;20096;-73
2024/03/27 03:22:38;;;;;;;7.35;3.97;;;12.00;92.60;;;;;;5060952;28;20040;-74
2024/03/27 03:25:04;;;;;;;9.05;4.28;;;12.00;92.60;;;;;;5061819;28;20396;-74
2024/03/27 03:27:30;;;;;;;7.38;3.80;;;12.00;92.50;;;;;;5047043;28;20491;-74
2024/03/27 03:29:55;;;;;;;7.65;4.18;;;12.00;92.50;;;;;;5046627;28;20035;-74
2024/03/27 03:32:21;;;;;;;7.55;4.10;;;12.00;92.50;;;;;;5055705;28;20054;-74
2024/03/27 03:34:47;;;;;;;6.05;3.75;;;12.00;92.50;;;;;;5051147;28;20056;-74
2024/03/27 03:37:12;;;;;;;6.13;3.70;;;12.00;92.50;;;;;;5048688;28;20024;-74
2024/03/27 03:39:38;;;;;;;5.93;3.97;;;12.00;92.40;;;;;;5048156;28;20016;-75
2024/03/27 03:42:04;;;;;;;6.60;4.00;;;12.00;92.40;;;;;;5060741;28;20398;-75
2024/03/27 03:44:29;;;;;;;18.02;4.05;;;12.00;92.20;;;;;;5062418;28;20032;-75
2024/03/27 03:46:55;;;;;;;7.68;4.25;;;12.00;92.20;;;;;;5068282;28;20037;-75
2024/03/27 03:49:21;;;;;;;5.95;3.72;;;12.00;92.10;;;;;;5051928;28;20484;-74
2024/03/27 03:51:46;;;;;;;7.72;3.85;;;12.00;92.20;;;;;;5060490;28;20055;-74
2024/03/27 03:54:12;;;;;;;7.90;3.70;;;12.00;92.20;;;;;;5060635;28;20036;-74
2024/03/27 03:56:38;;;;;;;6.05;3.88;;;12.00;92.20;;;;;;5060629;28;20377;-74
2024/03/27 03:59:03;;;;;;;7.40;4.55;;;12.00;92.20;;;;;;5058059;28;20049;-74
2024/03/27 04:01:29;;;;;;;8.07;4.00;;;11.90;92.20;;;;;;5053750;28;20035;-74
2024/03/27 04:03:55;;;;;;;9.95;4.00;;;11.90;92.20;;;;;;5053492;28;20017;-74
2024/03/27 04:06:21;;;;;;;7.97;4.32;;;12.00;92.20;;;;;;5060865;28;21461;-75
2024/03/27 04:08:46;;;;;;;8.68;4.45;;;12.00;92.10;;;;;;5057323;28;20375;-75
2024/03/27 04:11:12;;;;;;;7.28;3.95;;;11.90;92.10;;;;;;5063856;28;20048;-74
2024/03/27 04:13:37;;;;;;;9.85;4.72;;;11.90;92.10;;;;;;5049013;28;20029;-75
2024/03/27 04:16:04;;;;;;;6.35;4.15;;;11.90;92.20;;;;;;5050216;28;20582;-74
2024/03/27 04:18:29;;;;;;;6.55;4.20;;;11.90;92.20;;;;;;5054655;28;20037;-75
2024/03/27 04:20:55;;;;;;;7.25;4.47;;;11.90;92.20;;;;;;5061217;28;20032;-74
2024/03/27 04:23:21;;;;;;;6.05;3.67;;;11.90;92.30;;;;;;5057925;28;20025;-75
2024/03/27 04:25:50;;;;;;;7.65;3.95;;;11.90;92.20;;;;;;5050443;28;20099;-75
2024/03/27 04:28:16;;;;;;;7.57;3.80;;;11.90;92.10;;;;;;5056052;28;20228;-75
2024/03/27 04:30:42;;;;;;;9.75;4.20;;;11.90;92.20;;;;;;5063089;28;20139;-75
2024/03/27 04:33:12;;;;;;;8.05;4.35;;;11.90;92.30;;;;;;5054905;28;20036;-74
2024/03/27 04:35:38;;;;;;;8.18;4.35;;;11.80;92.40;;;;;;5047141;28;20040;-75
2024/03/27 04:38:04;;;;;;;7.68;4.32;;;11.80;92.40;;;;;;5058181;28;20119;-74
2024/03/27 04:40:31;;;;;;;6.93;4.53;;;11.80;92.50;;;;;;5056938;28;20044;-74
2024/03/27 04:42:57;;;;;;;9.32;4.32;;;11.80;92.40;;;;;;5054169;28;20146;-74
2024/03/27 04:45:23;;;;;;;9.07;4.57;;;11.90;92.40;;;;;;5047942;28;20032;-74
2024/03/27 04:47:49;;;;;;;5.53;3.75;;;11.80;92.40;;;;;;5060117;28;20028;-74
2024/03/27 04:50:14;;;;;;;6.80;3.88;;;11.80;92.40;;;;;;5047798;28;20481;-74
2024/03/27 04:52:40;;;;;;;7.50;4.35;;;11.80;92.50;;;;;;5055669;28;20043;-75
2024/03/27 04:55:06;;;;;;;8.00;4.20;;;11.80;92.50;;;;;;5052482;28;20466;-74
2024/03/27 04:57:32;;;;;;;7.88;4.35;;;11.80;92.50;;;;;;5046488;28;20468;-74
2024/03/27 04:59:58;;;;;;;9.90;4.50;;;11.80;92.50;;;;;;5056022;28;20040;-74
2024/03/27 05:02:24;;;;;;;9.10;4.95;;;11.80;92.50;;;;;;5060283;28;20029;-74
2024/03/27 05:04:50;;;;;;;11.27;4.30;;;11.80;92.40;;;;;;5065732;28;20589;-74
2024/03/27 05:07:16;;;;;;;7.72;4.38;;;11.90;92.50;;;;;;5064471;28;20032;-75
2024/03/27 05:09:42;;;;;;;9.65;4.55;;;11.80;92.60;;;;;;5050589;28;20021;-75
2024/03/27 05:12:07;;;;;;;12.30;5.35;;;11.90;92.60;;;;;;5049371;28;20040;-74
2024/03/27 05:14:33;;;;;;;9.23;4.60;;;11.80;92.70;;;;;;5066611;28;20375;-74
2024/03/27 05:16:59;;;;;;;7.82;4.75;;;11.80;92.60;;;;;;5062921;28;20399;-74
2024/03/27 05:19:25;;;;;;;12.18;4.60;;;11.80;92.70;;;;;;5063959;28;20035;-75
2024/03/27 05:21:52;;;;;;;8.27;4.25;;;11.80;92.70;;;;;;5061509;28;20029;-74
2024/03/27 05:24:18;;;;;;;7.78;4.47;;;11.80;92.60;;;;;;5068553;28;20403;-74
2024/03/27 05:26:46;;;;;;;9.40;4.85;;;11.80;92.70;;;;;;5053958;28;20040;-74
2024/03/27 05:29:12;;;;;;;6.95;4.32;;;11.80;92.70;;;;;;5053714;28;20024;-74
2024/03/27 05:31:48;;;;;;;11.20;5.07;;;11.80;92.70;;;;;;5068470;28;20487;-74
2024/03/27 05:34:15;;;;;;;10.52;5.00;;;11.80;92.60;;;;;;5070005;28;20024;-75
2024/03/27 05:36:41;;;;;;;10.25;4.90;;;11.80;92.60;;;;;;5063829;28;20454;-75
2024/03/27 05:39:08;;;;;;;7.30;4.20;;;11.90;92.60;;;;;;5063661;28;20120;-74
2024/03/27 05:41:34;;;;;;;7.68;4.28;;;11.80;92.60;;;;;;5050066;28;20029;-74
2024/03/27 05:44:00;;;;;;;8.27;4.95;;;11.90;92.60;;;;;;5059852;28;20537;-74
2024/03/27 05:46:26;;;;;;;8.93;5.80;;;11.90;92.80;;;;;;5054118;28;21057;-74
2024/03/27 05:48:55;;;;;;;9.43;5.28;;;11.90;92.80;;;;;;5056587;28;20036;-74
2024/03/27 05:51:21;;;;;;;14.68;4.45;;;11.80;92.80;;;;;;5059413;28;20044;-74
2024/03/27 05:53:47;;;;;;;7.63;4.50;;;11.90;92.80;;;;;;5057303;28;20037;-75
2024/03/27 05:56:13;;;;;;;10.13;4.90;;;11.90;92.80;;;;;;5058103;28;20036;-74
2024/03/27 05:58:38;;;;;;;9.82;4.75;;;11.90;92.80;;;;;;5060689;28;20053;-75
2024/03/27 06:01:04;;;;;;;7.03;4.18;;;11.90;92.80;;;;;;5059373;28;20032;-75
2024/03/27 06:03:30;;;;;;;6.78;4.25;;;11.90;92.70;;;;;;5057444;28;20450;-76
2024/03/27 06:05:55;;;;;;;8.65;4.55;;;11.90;92.70;;;;;;5061372;28;20187;-75
2024/03/27 06:08:21;;;;;;;9.45;4.90;;;11.90;92.70;;;;;;5067654;28;20025;-74
2024/03/27 06:10:48;;;;;;;7.10;4.45;;;11.90;92.80;;;;;;5058551;28;20029;-75
2024/03/27 06:13:14;;;;;;;10.68;4.55;;;11.90;92.90;;;;;;5058267;28;20028;-74
2024/03/27 06:15:39;;;;;;;7.05;4.47;;;11.90;92.80;;;;;;5057292;28;21651;-75
2024/03/27 06:18:05;;;;;;;9.75;4.90;;;11.90;92.80;;;;;;5060797;28;20032;-75
2024/03/27 06:20:34;;;;;;;9.13;4.60;;;12.00;92.80;;;;;;5058935;28;20062;-75
2024/03/27 06:22:59;;;;;;;6.93;4.50;;;12.00;92.80;;;;;;5066149;28;20054;-76
2024/03/27 06:25:25;;;;;;;7.65;4.25;;;12.00;92.90;;;;;;5057686;28;20033;-74
2024/03/27 06:27:51;;;;;;;7.47;4.60;;;12.00;92.90;;;;;;5052149;28;20029;-79
2024/03/27 06:30:16;;;;;;;10.82;4.60;;;12.00;92.90;;;;;;5048831;28;20487;-74
2024/03/27 06:32:43;;;;;;;10.95;4.20;;;12.00;92.90;;;;;;5049672;28;20029;-74
2024/03/27 06:35:09;;;;;;;9.02;4.93;;;12.00;92.90;;;;;;5054712;28;20028;-76
2024/03/27 06:37:35;;;;;;;7.18;4.60;;;12.00;92.80;;;;;;5050299;28;20035;-75
2024/03/27 06:40:01;;;;;;;7.38;4.32;;;12.00;92.90;;;;;;5063319;28;20032;-75
2024/03/27 06:42:27;;;;;;;9.93;5.32;;;12.00;92.90;;;;;;5057700;28;20167;-75
2024/03/27 06:44:56;;;;;;;9.20;4.45;;;12.10;92.90;;;;;;5053241;28;20028;-75
2024/03/27 06:47:26;;;;;;;9.80;4.78;;;12.00;92.90;;;;;;5065138;28;20036;-76
2024/03/27 06:49:52;;;;;;;12.70;5.50;;;12.10;92.90;;;;;;5049988;28;20503;-74
2024/03/27 06:52:21;;;;;;;12.60;4.72;;;12.10;92.90;;;;;;5068231;28;20152;-75
2024/03/27 06:54:51;;;;;;;8.00;4.40;;;12.10;92.80;;;;;;5063565;28;20170;-76
2024/03/27 06:57:20;;;;;;;7.80;4.60;;;12.10;92.90;;;;;;5060346;28;20033;-75
2024/03/27 06:59:45;;;;;;;12.63;5.43;;;12.10;92.80;;;;;;5058715;28;20060;-75
2024/03/27 07:02:12;;;;;;;8.48;5.05;;;12.20;92.90;;;;;;5053162;28;20037;-75
2024/03/27 07:04:38;;;;;;;10.18;4.72;;;12.20;92.90;;;;;;5056503;28;20085;-75
2024/03/27 07:07:04;;;;;;;9.15;4.57;;;12.20;92.90;;;;;;5066470;28;20020;-75
2024/03/27 07:09:32;;;;;;;8.93;4.45;;;12.20;92.80;;;;;;5054020;28;20035;-75
2024/03/27 07:11:58;;;;;;;10.82;4.97;;;12.30;92.70;;;;;;5046768;28;20044;-75
2024/03/27 07:14:23;;;;;;;12.48;5.28;;;12.30;92.70;;;;;;5056720;28;20033;-75
2024/03/27 07:16:49;;;;;;;6.82;4.50;;;12.40;92.60;;;;;;5048485;28;20032;-75
2024/03/27 07:19:15;;;;;;;9.00;4.75;;;12.50;92.50;;;;;;5060300;28;20710;-76
2024/03/27 07:21:43;;;;;;;6.85;4.13;;;12.50;92.50;;;;;;5048556;28;20120;-75
2024/03/27 07:24:09;;;;;;;8.77;4.43;;;12.60;92.50;;;;;;5051941;28;20112;-75
2024/03/27 07:26:39;;;;;;;11.30;5.75;;;12.60;92.50;;;;;;5060048;28;20047;-75
2024/03/27 07:29:05;;;;;;;12.75;5.47;;;12.60;92.60;;;;;;5054222;28;20380;-76
2024/03/27 07:31:31;;;;;;;12.55;5.50;;;12.60;92.60;;;;;;5048129;28;20045;-76
2024/03/27 07:33:57;;;;;;;7.22;5.00;;;12.70;92.70;;;;;;5067782;28;20402;-76
2024/03/27 07:36:23;;;;;;;11.77;5.22;;;12.70;92.70;;;;;;5066655;28;20089;-76
2024/03/27 07:38:49;;;;;;;9.88;5.50;;;12.70;92.60;;;;;;5053027;28;20036;-76
2024/03/27 07:41:15;;;;;;;10.43;4.47;;;12.70;92.70;;;;;;5055817;28;20070;-76
2024/03/27 07:43:41;;;;;;;41.95;6.88;;;12.70;92.60;;;;;;5055104;28;20488;-76
2024/03/27 07:46:07;;;;;;;10.70;4.35;;;12.80;92.70;;;;;;5054064;28;20075;-76
2024/03/27 07:48:34;;;;;;;12.75;5.68;;;12.80;92.80;;;;;;5048396;28;20105;-76
2024/03/27 07:51:00;;;;;;;7.82;3.00;;;12.80;92.70;;;;;;5058342;28;20036;-75
2024/03/27 07:53:27;;;;;;;6.70;3.92;;;12.90;92.50;;;;;;5055874;28;20127;-76
2024/03/27 07:55:56;;;;;;;11.23;5.10;;;12.90;92.50;;;;;;5065036;28;20082;-76
2024/03/27 07:58:22;;;;;;;5.60;3.72;;;12.90;92.70;;;;;;5063147;28;20053;-76
2024/03/27 08:00:49;;;;;;;6.22;3.05;;;12.90;92.40;;;;;;5048014;28;20037;-76
2024/03/27 08:03:15;;;;;;;9.63;4.30;;;13.00;92.50;;;;;;5047572;28;20029;-75
2024/03/27 08:05:40;;;;;;;11.85;4.03;;;13.00;92.50;;;;;;5056993;28;20036;-75
2024/03/27 08:08:06;;;;;;;12.35;3.45;;;13.10;92.50;;;;;;5048104;28;20033;-75
2024/03/27 08:10:32;;;;;;;7.53;4.03;;;13.20;92.60;;;;;;5051397;28;20072;-75
2024/03/27 08:12:57;;;;;;;7.63;4.72;;;13.20;92.70;;;;;;5061791;28;20071;-75
2024/03/27 08:15:23;;;;;;;5.88;3.55;;;13.20;92.50;;;;;;5047846;28;20481;-75
2024/03/27 08:17:49;;;;;;;9.10;4.25;;;13.20;92.60;;;;;;5056049;28;20021;-75
2024/03/27 08:20:16;;;;;;;6.78;3.47;;;13.30;92.70;;;;;;5056071;28;20058;-74
2024/03/27 08:22:41;;;;;;;14.65;4.78;;;13.30;92.60;;;;;;5056310;28;20112;-75
2024/03/27 08:25:07;;;;;;;8.30;3.92;;;13.40;92.70;;;;;;5045078;28;20123;-75
2024/03/27 08:27:33;;;;;;;6.70;4.13;;;13.40;92.60;;;;;;5053344;28;20029;-75
2024/03/27 08:29:58;;;;;;;8.25;4.40;;;13.50;92.60;;;;;;5050571;28;20035;-75
2024/03/27 08:32:24;;;;;;;14.13;4.40;;;13.50;92.50;;;;;;5062169;28;20037;-75
2024/03/27 08:34:50;;;;;;;7.05;3.33;;;13.60;92.50;;;;;;5053394;28;20519;-75
2024/03/27 08:37:15;;;;;;;8.65;3.65;;;13.60;92.60;;;;;;5058533;28;20086;-75
2024/03/27 08:39:42;;;;;;;10.95;3.97;;;13.70;92.80;;;;;;5056486;28;20017;-75
2024/03/27 08:42:07;;;;;;;9.57;3.88;;;13.60;92.80;;;;;;5052883;28;20086;-76
2024/03/27 08:44:33;;;;;;;6.57;3.60;;;13.60;93.00;;;;;;5067225;28;20025;-76
2024/03/27 08:46:59;;;;;;;4.00;1.95;;;13.60;93.10;;;;;;5057927;28;20025;-76
2024/03/27 08:49:26;;;;;;;6.55;3.78;;;13.60;93.30;;;;;;5057965;28;20052;-76
2024/03/27 08:51:51;;;;;;;7.10;2.58;;;13.60;93.40;;;;;;5063478;28;20383;-76
2024/03/27 08:54:17;;;;;;;6.43;2.45;;;13.60;93.60;;;;;;5052289;28;20029;-76
2024/03/27 08:56:42;;;;;;;3.20;1.88;;;13.60;93.80;;;;;;5052281;28;20025;-75
2024/03/27 08:59:08;;;;;;;9.75;2.92;;;13.50;94.00;;;;;;5060124;28;20045;-76
2024/03/27 09:01:34;;;;;;;2.85;1.85;;;13.50;94.10;;;;;;5050263;28;20033;-75
2024/03/27 09:03:59;;;;;;;1.83;1.30;;;13.50;94.10;;;;;;5051781;28;20098;-75
2024/03/27 09:06:25;;;;;;;5.28;2.00;;;13.50;94.30;;;;;;5059650;28;20029;-75
2024/03/27 09:08:50;;;;;;;3.75;2.20;;;13.40;94.40;;;;;;5065250;28;20107;-75
2024/03/27 09:11:16;;;;;;;3.50;2.15;;;13.40;94.50;;;;;;5069641;28;20047;-75
2024/03/27 09:13:42;;;;;;;4.43;2.30;;;13.40;94.60;;;;;;5061849;28;20373;-75
2024/03/27 09:16:08;;;;;;;7.20;1.83;;;13.40;94.60;;;;;;5055112;28;20056;-75
2024/03/27 09:18:34;;;;;;;4.22;2.13;;;13.50;94.70;;;;;;5061089;28;20044;-75
2024/03/27 09:21:00;;;;;;;2.17;1.63;;;13.50;94.80;;;;;;5066798;28;20056;-75
2024/03/27 09:23:27;;;;;;;2.53;1.85;;;13.50;94.80;;;;;;5064585;28;20048;-75
2024/03/27 09:26:01;;;;;;;3.42;1.05;;;13.50;94.90;;;;;;5051318;28;20597;-75
2024/03/27 09:28:26;;;;;;;;;;;13.50;94.90;;;;;;5060697;28;20064;-75
2024/03/27 09:30:53;;;;;;;5.80;1.63;;;13.50;94.90;;;;;;5054606;28;20488;-75
2024/03/27 09:33:18;;;;;;;2.83;2.08;;;13.50;95.00;;;;;;5054765;28;20790;-75
2024/03/27 09:35:46;;;;;;;5.82;3.60;;;13.60;95.10;;;;;;5052520;28;20029;-75
2024/03/27 09:38:13;;;;;;;5.43;3.53;;;13.60;95.30;;;;;;5063039;28;20078;-75
2024/03/27 09:40:55;;;;;;;5.95;3.35;;;13.60;95.20;;;;;;5056700;28;20491;-75
2024/03/27 09:43:22;;;;;;;3.85;2.30;;;13.60;95.40;;;;;;5054265;28;20472;-75
2024/03/27 09:45:48;;;;;;;4.80;2.70;;;13.60;95.60;;;;;;5055414;28;20025;-75
2024/03/27 09:48:15;;;;;;;4.30;2.20;;;13.60;95.50;;;;;;5052857;28;20397;-75
2024/03/27 09:50:41;;;;;;;3.95;2.88;;;13.70;95.70;;;;;;5050919;28;20033;-75
2024/03/27 09:53:08;;;;;;;11.18;2.65;;;13.70;95.70;;;;;;5051300;28;20041;-75
2024/03/27 09:55:35;;;;;;;5.40;2.63;;;13.80;95.70;;;;;;5050022;28;20052;-75
2024/03/27 09:58:06;;;;;;;4.53;3.00;;;13.80;95.70;;;;;;5061936;28;20205;-75
2024/03/27 10:00:33;;;;;;;4.15;2.65;;;13.80;95.60;;;;;;5051061;28;20056;-75
2024/03/27 10:02:59;;;;;;;3.03;2.28;;;13.90;95.60;;;;;;5060181;28;20111;-75
2024/03/27 10:05:26;;;;;;;4.43;2.10;;;13.90;95.60;;;;;;5063719;28;20040;-75
2024/03/27 10:07:56;;;;;;;4.20;2.92;;;14.00;95.60;;;;;;5048523;28;20060;-75
2024/03/27 10:10:22;;;;;;;3.35;2.25;;;14.00;95.60;;;;;;5050683;28;20044;-75
2024/03/27 10:12:48;;;;;;;3.78;2.45;;;14.10;95.90;;;;;;5055504;28;20044;-75
2024/03/27 10:15:14;;;;;;;5.53;2.83;;;14.20;95.60;;;;;;5049889;28;20027;-75
2024/03/27 10:17:41;;;;;;;4.22;2.15;;;14.20;95.50;;;;;;5058749;28;20036;-75
2024/03/27 10:20:08;;;;;;;5.50;3.05;;;14.30;95.50;;;;;;5049877;28;20323;-75
2024/03/27 10:22:34;;;;;;;2.00;1.73;;;14.30;95.50;;;;;;5050300;28;20480;-75
2024/03/27 10:25:02;;;;;;;9.85;3.60;;;14.40;95.50;;;;;;5056875;28;20052;-75
2024/03/27 10:27:29;;;;;;;5.97;2.90;;;14.40;95.60;;;;;;5052989;28;20552;-75
2024/03/27 10:29:54;;;;;;;4.43;2.42;;;14.60;95.30;;;;;;5048067;28;20029;-75
2024/03/27 10:32:22;;;;;;;6.63;2.63;;;14.60;95.30;;;;;;5051280;28;20438;-75
2024/03/27 10:34:48;;;;;;;4.13;2.20;;;14.70;95.40;;;;;;5051754;28;20040;-75
2024/03/27 10:37:15;;;;;;;4.80;2.30;;;14.70;95.40;;;;;;5063265;28;20037;-75
2024/03/27 10:39:49;;;;;;;2.80;1.75;;;14.60;95.40;;;;;;5049530;28;20037;-75
2024/03/27 10:42:27;;;;;;;;;;;14.60;95.40;;;;;;5059025;28;20555;-75
2024/03/27 10:44:57;;;;;;;13.48;3.75;;;14.60;95.30;;;;;;5065336;28;20410;-75
2024/03/27 10:47:34;;;;;;;7.35;2.97;;;14.60;95.30;;;;;;5058423;28;20503;-74
2024/03/27 10:50:03;;;;;;;3.88;2.55;;;14.60;95.40;;;;;;5060334;28;20032;-75
2024/03/27 10:52:31;;;;;;;5.47;2.50;;;14.60;95.40;;;;;;5051113;28;20045;-75
2024/03/27 10:54:57;;;;;;;4.55;2.58;;;14.50;95.50;;;;;;5054472;28;20066;-75
2024/03/27 10:57:23;;;;;;;4.82;3.03;;;14.50;95.40;;;;;;5054581;28;20033;-75
2024/03/27 10:59:50;;;;;;;4.72;2.47;;;14.50;95.70;;;;;;5062770;28;20082;-75
2024/03/27 11:02:18;;;;;;;8.15;3.00;;;14.40;95.60;;;;;;5052050;28;20036;-78
2024/03/27 11:04:56;;;;;;;8.00;3.03;;;14.40;95.80;;;;;;5056287;28;20067;-78
2024/03/27 11:07:23;;;;;;;8.23;3.10;;;14.40;95.70;;;;;;5057672;28;20031;-77
2024/03/27 11:09:53;;;;;;;4.43;1.92;;;14.40;95.70;;;;;;5049253;28;20036;-77
2024/03/27 11:12:27;;;;;;;6.43;2.80;;;14.40;95.80;;;;;;5050446;28;20492;-77
2024/03/27 11:14:52;;;;;;;6.68;2.28;;;14.40;95.80;;;;;;5060625;28;20117;-77
2024/03/27 11:17:25;;;;;;;4.88;2.53;;;14.30;95.30;;;;;;5059503;28;20040;-78
2024/03/27 11:19:54;;;;;;;2.90;2.05;;;14.30;95.30;;;;;;5052574;28;20020;-77
2024/03/27 11:22:23;;;;;;;1.90;1.52;;;14.30;95.40;;;;;;5056033;28;20471;-77
2024/03/27 11:24:50;;;;;;;1.88;1.42;;;14.20;95.50;;;;;;5055271;28;20472;-77
2024/03/27 11:27:26;;;;;;;2.58;1.60;;;14.20;95.70;;;;;;5058921;28;20036;-77
2024/03/27 11:29:53;;;;;;;4.68;2.20;;;14.20;95.50;;;;;;5056220;28;20476;-77
2024/03/27 11:32:20;;;;;;;2.40;1.58;;;14.20;95.60;;;;;;5048235;28;20041;-77
2024/03/27 11:34:47;;;;;;;2.92;1.40;;;14.20;95.50;;;;;;5052495;28;20041;-77
2024/03/27 11:37:12;;;;;;;3.88;2.03;;;14.30;95.50;;;;;;5057010;28;20036;-77
2024/03/27 11:39:38;;;;;;;4.28;1.60;;;14.20;95.50;;;;;;5047318;28;20017;-77
2024/03/27 11:42:04;;;;;;;5.72;2.03;;;14.20;95.20;;;;;;5050463;28;20503;-77
2024/03/27 11:44:32;;;;;;;3.35;1.90;;;14.30;95.20;;;;;;5049479;28;20037;-77
2024/03/27 11:46:59;;;;;;;6.78;1.10;;;14.30;95.30;;;;;;5060773;28;20400;-77
2024/03/27 11:49:24;;;;;;;1.88;1.17;;;14.30;95.40;;;;;;5049599;28;20036;-76
2024/03/27 11:51:50;;;;;;;4.68;1.75;;;14.30;95.30;;;;;;5054606;28;20034;-76
2024/03/27 11:54:16;;;;;;;4.95;2.25;;;14.30;95.30;;;;;;5053402;28;20265;-76
2024/03/27 11:56:41;;;;;;;1.83;1.17;;;14.30;95.20;;;;;;5057241;28;20032;-76
2024/03/27 11:59:07;;;;;;;2.42;1.23;;;14.40;95.20;;;;;;5048614;28;20068;-76
2024/03/27 12:01:34;;;;;;;3.30;1.77;;;14.40;95.40;;;;;;5048192;28;20037;-75
2024/03/27 12:04:03;;;;;;;7.90;2.63;;;14.40;95.30;;;;;;5053449;28;20033;-76
2024/03/27 12:06:28;;;;;;;10.13;2.92;;;14.40;95.10;;;;;;5058105;28;20028;-76
2024/03/27 12:08:54;;;;;;;3.53;1.55;;;14.40;95.20;;;;;;5054911;28;20029;-76
2024/03/27 12:11:21;;;;;;;8.02;2.33;;;14.40;95.40;;;;;;5047158;28;20036;-75
2024/03/27 12:13:48;;;;;;;3.33;1.90;;;14.40;95.40;;;;;;5055284;28;20032;-75
2024/03/27 12:16:15;;;;;;;8.32;1.50;;;14.40;95.50;;;;;;5053753;28;20087;-76
2024/03/27 12:18:44;;;;;;;3.33;2.03;;;14.40;95.50;;;;;;5060933;28;20078;-76
2024/03/27 12:21:15;;;;;;;1.55;1.15;;;14.40;95.40;;;;;;5057886;28;20029;-75
2024/03/27 12:23:43;;;;;;;3.88;2.08;;;14.40;95.40;;;;;;5060545;28;20108;-75
2024/03/27 12:26:15;;;;;;;7.05;2.35;;;14.50;95.50;;;;;;5056220;28;20032;-74
2024/03/27 12:28:45;;;;;;;6.78;3.13;;;14.50;95.50;;;;;;5047036;28;20540;-76
2024/03/27 12:31:14;;;;;;;4.90;2.10;;;14.50;95.30;;;;;;5056006;28;20040;-76
2024/03/27 12:33:40;;;;;;;6.10;2.05;;;14.50;95.30;;;;;;5049569;28;20036;-76
2024/03/27 12:36:06;;;;;;;4.20;2.20;;;14.50;94.90;;;;;;5057758;28;20036;-77
2024/03/27 12:38:32;;;;;;;3.55;2.15;;;14.50;94.90;;;;;;5051264;28;20053;-77
2024/03/27 12:40:57;;;;;;;4.57;2.38;;;14.50;94.90;;;;;;5051281;28;20141;-77